Terminal Aerodrome Forecast
Issued by NWS

Home | Current Version | Previous Version | Text Only | Print | Product List | Glossary On
Versions: 1 2 3 4 5 6 7 8 9 10 11 12 13 14 15 16 17 18 19 20
343
FTUS44 KCRP 041742 CCA
TAFLRD
TAF COR
KLRD 041742Z 0418/0518 36012KT 6SM -SHRA BR BKN008 OVC015
      TEMPO 0503/0507 4SM TSRA BKN008 OVC015CB
     FM050700 31013KT P6SM -RA BKN013 OVC080
     FM051000 32010KT P6SM BKN015=

USA.gov is the U.S. government's official web portal to all federal, state and local government web resources and services.